createdAt,value
2019-02-07T00:03:34.714Z,-0.17
2019-02-07T00:08:40.334Z,-0.15
2019-02-07T00:13:45.692Z,-0.17
2019-02-07T00:18:51.148Z,-0.30
2019-02-07T00:23:56.610Z,-0.33
2019-02-07T00:29:01.774Z,-0.41
2019-02-07T00:34:07.072Z,-0.44
2019-02-07T00:39:12.221Z,-0.47
2019-02-07T00:44:17.482Z,-0.55
2019-02-07T00:49:22.573Z,-0.56
2019-02-07T00:54:28.459Z,-0.58
2019-02-07T00:59:33.684Z,-0.63
2019-02-07T01:04:39.183Z,-0.72
2019-02-07T01:09:44.405Z,-0.75
2019-02-07T01:14:55.283Z,-0.79
2019-02-07T01:19:57.237Z,-0.41
2019-02-07T01:25:02.390Z,-0.34
2019-02-07T01:30:09.927Z,-0.49
2019-02-07T01:35:15.587Z,-0.56
2019-02-07T01:40:21.151Z,-0.52
2019-02-07T01:45:26.295Z,-0.58
2019-02-07T01:50:31.440Z,-0.59
2019-02-07T01:55:36.580Z,-0.56
2019-02-07T02:00:42.057Z,-0.59
2019-02-07T02:05:47.777Z,-0.58
2019-02-07T02:10:52.924Z,-0.65
2019-02-07T02:15:58.486Z,-0.75
2019-02-07T02:21:03.647Z,-0.72
2019-02-07T02:26:09.288Z,-0.68
2019-02-07T02:31:14.652Z,-0.64
2019-02-07T02:36:20.078Z,-0.52
2019-02-07T02:41:25.625Z,-0.54
2019-02-07T02:46:30.791Z,-0.62
2019-02-07T02:51:36.520Z,-0.65
2019-02-07T02:56:41.608Z,-0.72
2019-02-07T03:01:58.213Z,-0.90
2019-02-07T03:07:20.198Z,-1.01
2019-02-07T03:12:53.740Z,-1.10
2019-02-07T03:18:20.767Z,-1.07
2019-02-07T03:23:44.217Z,-0.82
2019-02-07T03:29:14.481Z,-0.82
2019-02-07T03:34:39.337Z,-0.67
2019-02-07T03:39:55.000Z,-0.69
2019-02-07T03:45:18.108Z,-0.66
2019-02-07T03:50:41.378Z,-0.72
2019-02-07T03:56:03.010Z,-0.72
2019-02-07T04:01:30.630Z,-0.97
2019-02-07T04:07:00.092Z,-0.85
2019-02-07T04:12:17.022Z,-0.94
2019-02-07T04:17:56.253Z,-1.05
2019-02-07T04:23:27.301Z,-1.03
2019-02-07T04:28:48.369Z,-1.00
2019-02-07T04:34:09.113Z,-1.05
2019-02-07T04:39:33.356Z,-0.97
2019-02-07T04:44:58.570Z,-1.00
2019-02-07T04:50:31.931Z,-1.04
2019-02-07T04:55:52.544Z,-1.03
2019-02-07T05:01:08.150Z,-1.00
2019-02-07T05:06:23.122Z,-0.88
2019-02-07T05:11:47.972Z,-0.70
2019-02-07T05:17:04.891Z,-0.63
2019-02-07T05:22:47.603Z,-0.78
2019-02-07T05:28:04.944Z,-0.82
2019-02-07T05:33:38.448Z,-0.72
2019-02-07T05:38:52.348Z,-0.69
2019-02-07T05:44:14.057Z,-0.70
2019-02-07T05:49:50.447Z,-0.61
2019-02-07T05:55:24.924Z,-0.53
2019-02-07T06:00:52.483Z,-0.35
2019-02-07T06:06:09.186Z,-0.08
2019-02-07T06:11:37.784Z,0.11
2019-02-07T06:17:03.465Z,0.24
2019-02-07T06:22:26.649Z,0.31
2019-02-07T06:27:40.488Z,0.46
2019-02-07T06:33:16.793Z,0.39
2019-02-07T06:38:56.121Z,0.52
2019-02-07T06:44:19.209Z,0.51
2019-02-07T06:49:46.507Z,0.73
2019-02-07T06:55:09.832Z,0.95
2019-02-07T07:00:25.623Z,0.92
2019-02-07T07:05:48.811Z,0.85
2019-02-07T07:11:20.980Z,0.91
2019-02-07T07:16:43.804Z,0.88
2019-02-07T07:22:07.287Z,1.11
2019-02-07T07:27:35.133Z,1.06
2019-02-07T07:32:59.440Z,1.17
2019-02-07T07:38:26.875Z,1.20
2019-02-07T07:44:03.912Z,1.19
2019-02-07T07:49:26.952Z,1.12
2019-02-07T07:55:03.638Z,1.11
2019-02-07T08:00:33.500Z,1.10
2019-02-07T08:05:54.425Z,1.14
2019-02-07T08:11:07.074Z,1.13
2019-02-07T08:16:31.629Z,1.17
2019-02-07T08:21:51.351Z,1.26
2019-02-07T08:27:18.413Z,1.29
2019-02-07T08:32:48.441Z,1.24
2019-02-07T08:38:15.656Z,1.33
2019-02-07T08:43:37.784Z,1.50
2019-02-07T08:49:01.963Z,1.65
2019-02-07T08:54:35.212Z,1.74
2019-02-07T08:59:58.288Z,1.82
2019-02-07T09:05:25.724Z,1.83
2019-02-07T09:10:47.512Z,1.80
2019-02-07T09:16:05.646Z,1.89
2019-02-07T09:21:32.556Z,1.93
2019-02-07T09:26:48.625Z,1.95
2019-02-07T09:32:12.833Z,1.95
2019-02-07T09:37:42.803Z,1.91
2019-02-07T09:43:00.601Z,1.90
2019-02-07T09:48:24.877Z,1.95
2019-02-07T09:53:49.548Z,1.98
2019-02-07T09:59:22.371Z,1.81
2019-02-07T10:04:44.472Z,1.80
2019-02-07T10:10:24.329Z,1.82
2019-02-07T10:15:47.184Z,1.73
2019-02-07T10:21:14.756Z,1.65
2019-02-07T10:26:42.044Z,1.59
2019-02-07T10:32:08.236Z,1.51
2019-02-07T10:37:31.285Z,1.55
2019-02-07T10:43:13.545Z,1.58
2019-02-07T10:48:44.170Z,1.63
2019-02-07T10:53:51.479Z,1.68
2019-02-07T10:59:13.602Z,1.70
2019-02-07T11:04:37.812Z,1.76
2019-02-07T11:09:56.883Z,1.69
2019-02-07T11:15:25.183Z,1.61
2019-02-07T11:20:58.408Z,1.61
2019-02-07T11:26:22.927Z,1.62
2019-02-07T11:31:56.420Z,1.69
2019-02-07T11:37:19.238Z,1.76
2019-02-07T11:42:53.311Z,1.81
2019-02-07T11:48:09.332Z,1.86
2019-02-07T11:53:27.070Z,1.98
2019-02-07T11:58:54.825Z,1.99
2019-02-07T12:04:22.026Z,1.98
2019-02-07T12:09:55.562Z,2.11
2019-02-07T12:15:28.886Z,2.33
2019-02-07T12:20:53.038Z,2.46
2019-02-07T12:26:23.234Z,2.50
2019-02-07T12:31:46.346Z,2.54
2019-02-07T12:37:20.907Z,2.67
2019-02-07T12:42:45.069Z,2.63
2019-02-07T12:48:01.032Z,2.64
2019-02-07T12:53:26.149Z,2.76
2019-02-07T12:58:46.755Z,2.97
2019-02-07T13:04:23.144Z,3.42
2019-02-07T13:09:59.520Z,3.43
2019-02-07T13:15:19.552Z,3.15
2019-02-07T13:20:46.544Z,3.02
2019-02-07T13:26:09.314Z,3.08
2019-02-07T13:31:26.152Z,3.02
2019-02-07T13:36:49.581Z,3.02
2019-02-07T13:42:32.035Z,3.04
2019-02-07T13:47:58.968Z,3.08
2019-02-07T13:53:25.013Z,2.93
2019-02-07T13:58:47.999Z,2.97
2019-02-07T14:04:18.289Z,2.99
2019-02-07T14:09:36.112Z,3.07
2019-02-07T14:15:06.474Z,3.21
2019-02-07T14:20:43.136Z,3.20
2019-02-07T14:26:00.551Z,3.20
2019-02-07T14:31:43.253Z,3.22
2019-02-07T14:37:25.470Z,3.16
2019-02-07T14:42:52.887Z,3.16
2019-02-07T14:47:58.074Z,3.20
2019-02-07T14:53:03.258Z,3.22
2019-02-07T14:58:08.819Z,3.22
2019-02-07T15:03:14.051Z,3.19
2019-02-07T15:08:20.122Z,3.21
2019-02-07T15:13:25.299Z,3.18
2019-02-07T15:18:30.469Z,3.15
2019-02-07T15:23:35.648Z,3.15
2019-02-07T15:28:40.934Z,3.15
2019-02-07T15:33:46.235Z,3.14
2019-02-07T15:38:51.802Z,3.16
2019-02-07T15:43:58.173Z,3.16
2019-02-07T15:49:03.624Z,3.18
2019-02-07T15:54:08.793Z,3.18
2019-02-07T15:59:34.143Z,3.15
2019-02-07T16:04:41.858Z,3.11
2019-02-07T16:09:47.155Z,3.07
2019-02-07T16:14:52.818Z,3.06
2019-02-07T16:19:58.001Z,3.02
2019-02-07T16:25:03.185Z,2.98
2019-02-07T16:30:12.710Z,2.97
2019-02-07T16:35:18.239Z,2.94
2019-02-07T16:40:23.847Z,2.91
2019-02-07T16:45:30.102Z,2.87
2019-02-07T16:50:35.809Z,2.86
2019-02-07T16:55:40.996Z,2.84
2019-02-07T17:00:46.533Z,2.80
2019-02-07T17:05:51.720Z,2.74
2019-02-07T17:10:59.061Z,2.70
2019-02-07T17:16:04.843Z,2.68
2019-02-07T17:21:12.127Z,2.60
2019-02-07T17:26:17.109Z,2.55
2019-02-07T17:31:23.330Z,2.54
2019-02-07T17:36:28.784Z,2.47
2019-02-07T17:41:36.022Z,2.36
2019-02-07T17:46:41.209Z,2.18
2019-02-07T17:51:46.726Z,2.06
2019-02-07T17:56:51.956Z,1.98
2019-02-07T18:01:57.222Z,1.94
2019-02-07T18:07:02.393Z,1.87
2019-02-07T18:12:08.177Z,1.74
2019-02-07T18:17:13.790Z,1.86
2019-02-07T18:22:19.980Z,1.65
2019-02-07T18:27:25.196Z,1.59
2019-02-07T18:32:30.455Z,1.34
2019-02-07T18:37:36.379Z,1.31
2019-02-07T18:42:41.583Z,1.21
2019-02-07T18:47:46.994Z,1.14
2019-02-07T18:52:52.729Z,1.04
2019-02-07T18:57:59.161Z,0.98
2019-02-07T19:03:05.437Z,0.87
2019-02-07T19:08:10.988Z,1.02
2019-02-07T19:13:16.574Z,1.05
2019-02-07T19:18:21.952Z,0.97
2019-02-07T19:23:27.467Z,0.96
2019-02-07T19:28:33.201Z,0.96
2019-02-07T19:33:39.036Z,0.94
2019-02-07T19:38:44.268Z,0.82
2019-02-07T19:43:49.525Z,0.84
2019-02-07T19:48:55.284Z,0.93
2019-02-07T19:54:01.447Z,0.87
2019-02-07T19:59:07.582Z,0.80
2019-02-07T20:04:14.109Z,0.78
2019-02-07T20:09:19.649Z,0.87
2019-02-07T20:14:24.851Z,0.91
2019-02-07T20:19:30.074Z,0.95
2019-02-07T20:24:45.678Z,0.95
2019-02-07T20:29:42.389Z,1.12
2019-02-07T20:34:47.598Z,0.99
2019-02-07T20:39:53.072Z,0.94
2019-02-07T20:44:58.256Z,0.80
2019-02-07T20:50:05.863Z,0.94
2019-02-07T20:55:12.405Z,0.86
2019-02-07T21:00:23.589Z,0.91
2019-02-07T21:05:30.188Z,0.92
2019-02-07T21:10:35.779Z,0.77
2019-02-07T21:15:41.908Z,0.86
2019-02-07T21:20:47.097Z,0.89
2019-02-07T21:25:53.097Z,0.96
2019-02-07T21:30:58.641Z,1.08
2019-02-07T21:36:04.083Z,1.00
2019-02-07T21:41:09.690Z,0.94
2019-02-07T21:46:14.869Z,0.93
2019-02-07T21:51:20.251Z,0.85
2019-02-07T21:56:25.462Z,0.97
2019-02-07T22:01:30.646Z,1.14
2019-02-07T22:06:37.320Z,1.21
2019-02-07T22:11:42.619Z,1.28
2019-02-07T22:16:48.299Z,1.40
2019-02-07T22:21:53.568Z,1.35
2019-02-07T22:26:58.738Z,1.36
2019-02-07T22:32:04.071Z,1.44
2019-02-07T22:37:09.490Z,1.56
2019-02-07T22:42:15.044Z,1.48
2019-02-07T22:47:20.600Z,1.38
2019-02-07T22:52:25.918Z,1.39
2019-02-07T22:57:32.976Z,1.32
2019-02-07T23:02:38.660Z,1.48
2019-02-07T23:07:44.156Z,1.32
2019-02-07T23:12:49.330Z,1.42
2019-02-07T23:17:54.902Z,1.58
2019-02-07T23:23:05.186Z,1.71
2019-02-07T23:28:07.946Z,1.76
2019-02-07T23:33:13.756Z,1.59
2019-02-07T23:38:18.908Z,1.54
2019-02-07T23:43:24.515Z,1.59
2019-02-07T23:48:29.721Z,1.39
2019-02-07T23:53:34.898Z,1.30
2019-02-07T23:58:40.097Z,1.20
